Time;durP1;ratioP1;P1;durP2;ratioP2;P2;SDS_P1;SDS_P2;PMS_P1;PMS_P2;Temp;Humidity;BMP_temperature;BMP_pressure;BME280_temperature;BME280_humidity;BME280_pressure;Samples;Min_cycle;Max_cycle;Signal;HPM_P1;HPM_P2
2023/03/30 00:01:10;;;;;;;13.55;2.55;;;;;;;14.34;76.35;98082.13;4177574;28;20196;-48
2023/03/30 00:03:12;;;;;;;15.27;2.00;;;;;;;14.32;76.69;98078.03;4170151;28;20219;-49
2023/03/30 00:05:16;;;;;;;6.20;1.85;;;;;;;14.33;76.73;98090.66;4193087;28;20235;-48
2023/03/30 00:07:18;;;;;;;13.25;2.10;;;;;;;14.34;76.69;98090.41;4177104;28;20211;-48
2023/03/30 00:09:21;;;;;;;4.15;1.83;;;;;;;14.16;77.56;98085.50;4171433;28;20229;-48
2023/03/30 00:11:23;;;;;;;6.93;1.90;;;;;;;14.14;77.67;98093.22;4176639;28;20800;-48
2023/03/30 00:13:27;;;;;;;7.53;2.60;;;;;;;14.20;77.33;98086.63;4171874;28;20654;-49
2023/03/30 00:15:28;;;;;;;9.75;2.53;;;;;;;14.09;77.92;98085.00;4177490;28;20236;-49
2023/03/30 00:17:32;;;;;;;5.68;1.58;;;;;;;13.99;78.82;98074.06;4177671;28;20290;-48
2023/03/30 00:19:36;;;;;;;5.95;2.05;;;;;;;13.94;78.79;98085.06;4193475;28;20200;-48
2023/03/30 00:21:38;;;;;;;4.20;1.95;;;;;;;13.82;79.75;98078.22;4172240;28;20257;-48
2023/03/30 00:23:39;;;;;;;4.93;1.80;;;;;;;13.89;79.78;98087.84;4176483;28;20266;-48
2023/03/30 00:25:41;;;;;;;4.53;1.80;;;;;;;13.91;79.60;98090.31;4157349;28;20232;-48
2023/03/30 00:27:43;;;;;;;3.78;1.65;;;;;;;14.04;79.78;98065.75;4184656;28;20211;-48
2023/03/30 00:29:45;;;;;;;3.90;1.75;;;;;;;14.14;79.08;98043.69;4177396;28;20210;-48
2023/03/30 00:31:47;;;;;;;6.38;2.25;;;;;;;14.17;79.08;98040.38;4153354;28;20313;-48
2023/03/30 00:33:49;;;;;;;4.70;2.55;;;;;;;14.23;78.83;98031.00;4171656;28;20270;-48
2023/03/30 00:35:52;;;;;;;5.55;1.92;;;;;;;14.33;78.20;98030.94;4175138;28;20365;-48
2023/03/30 00:37:54;;;;;;;6.45;1.70;;;;;;;14.50;77.54;98031.34;4169955;28;20213;-50
2023/03/30 00:39:55;;;;;;;5.00;1.80;;;;;;;14.62;76.79;98040.09;4165416;28;20213;-48
2023/03/30 00:41:57;;;;;;;5.28;2.05;;;;;;;14.61;76.85;98057.72;4169448;28;20207;-48
2023/03/30 00:44:03;;;;;;;8.48;1.63;;;;;;;14.57;77.08;98059.38;4167642;28;20220;-48
2023/03/30 00:46:04;;;;;;;17.00;3.10;;;;;;;14.63;77.06;98079.47;4173656;28;20259;-48
2023/03/30 00:48:18;;;;;;;14.85;2.60;;;;;;;14.65;76.99;98067.06;4168364;28;20257;-48
2023/03/30 00:50:22;;;;;;;6.35;2.67;;;;;;;14.64;77.17;98068.16;4166818;28;20306;-47
2023/03/30 00:52:24;;;;;;;7.03;2.53;;;;;;;14.88;76.09;98066.31;4166606;28;20314;-50
2023/03/30 00:54:25;;;;;;;6.05;2.00;;;;;;;14.92;75.79;98061.06;4174592;28;20247;-48
2023/03/30 00:56:29;;;;;;;4.75;1.85;;;;;;;14.90;75.72;98063.28;4169797;28;20239;-48
2023/03/30 00:58:31;;;;;;;5.70;2.35;;;;;;;14.93;75.76;98058.00;4182333;28;20239;-48
2023/03/30 01:00:33;;;;;;;7.00;1.70;;;;;;;15.00;75.40;98053.00;4155567;28;20295;-48
2023/03/30 01:02:41;;;;;;;12.50;1.83;;;;;;;15.17;74.33;98047.84;4165619;28;20238;-48
2023/03/30 01:04:44;;;;;;;12.50;1.63;;;;;;;15.10;74.70;98050.13;4168538;28;20223;-48
2023/03/30 01:06:46;;;;;;;7.05;2.63;;;;;;;15.08;75.12;98054.28;4168626;28;20690;-48
2023/03/30 01:08:49;;;;;;;11.10;2.08;;;;;;;15.17;74.57;98058.88;4158531;28;20205;-48
2023/03/30 01:10:51;;;;;;;5.72;1.98;;;;;;;15.14;74.97;98059.47;4174126;28;20243;-48
2023/03/30 01:12:53;;;;;;;8.90;1.67;;;;;;;15.13;75.14;98068.84;4174368;28;20294;-48
2023/03/30 01:14:55;;;;;;;5.88;1.73;;;;;;;15.17;74.81;98053.34;4171300;28;20746;-49
2023/03/30 01:17:12;;;;;;;5.65;2.00;;;;;;;15.11;75.34;98051.75;4170590;28;20656;-48
2023/03/30 01:19:47;;;;;;;7.38;1.67;;;;;;;15.15;74.68;98033.53;4166042;28;20269;-48
2023/03/30 01:22:11;;;;;;;3.95;1.63;;;;;;;15.25;74.17;98038.97;4169815;28;20238;-48
2023/03/30 01:24:52;;;;;;;15.38;2.30;;;;;;;15.35;73.90;98055.41;4167792;28;20215;-48
2023/03/30 01:27:05;;;;;;;7.35;2.20;;;;;;;15.30;74.11;98052.69;4135847;28;20257;-48
2023/03/30 01:29:33;;;;;;;11.07;2.17;;;;;;;15.22;74.83;98060.78;4167682;28;20745;-48
2023/03/30 01:31:59;;;;;;;4.43;1.55;;;;;;;15.17;75.44;98064.38;4161715;28;20293;-48
2023/03/30 01:34:13;;;;;;;5.07;1.55;;;;;;;15.15;75.40;98083.16;4167266;28;20216;-48
2023/03/30 01:36:47;;;;;;;5.93;1.75;;;;;;;15.19;75.47;98088.91;4166002;28;20224;-48
2023/03/30 01:39:11;;;;;;;13.73;2.30;;;;;;;15.15;75.71;98085.91;4169701;28;20629;-48
2023/03/30 01:41:33;;;;;;;6.28;2.53;;;;;;;15.16;77.41;98092.25;4151362;28;20682;-48
2023/03/30 01:43:55;;;;;;;8.75;1.95;;;;;;;15.04;78.90;98092.63;4167407;28;20204;-48
2023/03/30 01:46:29;;;;;;;5.55;1.60;;;;;;;14.90;81.13;98041.25;4171625;28;20772;-49
2023/03/30 01:48:44;;;;;;;5.97;2.10;;;;;;;14.95;80.99;98017.22;4168348;28;20208;-48
2023/03/30 01:50:50;;;;;;;4.65;2.20;;;;;;;14.80;82.84;98009.09;4170904;28;20291;-48
2023/03/30 01:52:58;;;;;;;5.05;2.45;;;;;;;14.71;84.17;98034.78;4168066;28;20235;-49
2023/03/30 01:55:20;;;;;;;8.10;2.20;;;;;;;14.59;85.27;98037.91;4168283;28;20773;-48
2023/03/30 01:57:41;;;;;;;5.75;1.80;;;;;;;14.52;86.86;98048.44;4168253;28;20294;-48
2023/03/30 01:59:56;;;;;;;7.68;2.63;;;;;;;14.43;87.41;98060.34;4169903;28;20208;-48
2023/03/30 02:02:02;;;;;;;13.73;1.73;;;;;;;14.42;87.25;98054.00;4169425;28;20319;-49
2023/03/30 02:04:05;;;;;;;5.28;1.80;;;;;;;14.47;87.99;98070.50;4168326;28;20676;-48
2023/03/30 02:06:17;;;;;;;5.55;1.77;;;;;;;14.37;88.70;98076.06;4168578;28;20240;-49
2023/03/30 02:08:22;;;;;;;3.03;1.52;;;;;;;14.40;88.99;98096.69;4202115;28;20736;-48
2023/03/30 02:10:27;;;;;;;3.67;1.90;;;;;;;14.38;89.15;98093.41;4171491;28;20301;-48
2023/03/30 02:12:29;;;;;;;10.15;3.30;;;;;;;14.40;88.58;98064.50;4201951;28;20700;-48
2023/03/30 02:14:32;;;;;;;15.45;2.67;;;;;;;14.33;89.50;98052.97;4167944;28;20223;-49
2023/03/30 02:16:44;;;;;;;8.82;2.03;;;;;;;14.38;89.05;98038.34;4170132;28;20207;-48
2023/03/30 02:18:45;;;;;;;3.90;2.03;;;;;;;14.30;90.25;98019.69;4170132;28;20208;-48
2023/03/30 02:20:48;;;;;;;5.53;1.80;;;;;;;14.30;90.11;98020.50;4170893;28;20215;-49
2023/03/30 02:22:50;;;;;;;9.10;2.15;;;;;;;14.25;90.59;98028.81;4178660;28;20281;-48
2023/03/30 02:24:56;;;;;;;6.35;2.08;;;;;;;14.21;91.61;98038.72;4162017;28;20235;-48
2023/03/30 02:27:00;;;;;;;10.00;2.22;;;;;;;14.18;91.63;98050.28;4178595;28;20708;-48
2023/03/30 02:29:02;;;;;;;12.07;3.15;;;;;;;14.17;91.66;98073.38;4178242;28;20263;-48
2023/03/30 02:31:10;;;;;;;4.95;2.30;;;;;;;14.21;91.80;98088.28;4169076;28;20216;-49
2023/03/30 02:33:27;;;;;;;10.15;2.83;;;;;;;14.16;92.00;98095.72;4155975;28;20243;-48
2023/03/30 02:35:41;;;;;;;4.18;2.00;;;;;;;14.18;91.79;98091.56;4169625;28;20423;-49
2023/03/30 02:37:58;;;;;;;6.95;2.88;;;;;;;14.22;93.22;98075.34;4170603;28;20670;-49
2023/03/30 02:40:21;;;;;;;6.22;2.22;;;;;;;14.13;95.56;98072.31;4170271;28;20288;-48
2023/03/30 02:42:48;;;;;;;14.38;2.80;;;;;;;14.08;97.21;98086.09;4170509;28;20728;-49
2023/03/30 02:45:18;;;;;;;7.97;3.83;;;;;;;14.12;98.90;98081.69;4170259;28;20291;-49
2023/03/30 02:47:50;;;;;;;9.27;2.78;;;;;;;14.04;100.00;98082.25;4203213;28;20249;-49
2023/03/30 02:50:11;;;;;;;7.78;2.15;;;;;;;13.95;100.00;98061.13;4167580;28;20270;-48
2023/03/30 02:52:51;;;;;;;3.50;1.90;;;;;;;13.87;100.00;98054.31;4185410;28;20229;-49
2023/03/30 02:54:57;;;;;;;7.60;2.05;;;;;;;13.87;100.00;98051.56;4169808;28;20686;-48
2023/03/30 02:57:08;;;;;;;6.80;2.97;;;;;;;13.73;100.00;98056.03;4171815;28;20214;-48
2023/03/30 02:59:19;;;;;;;6.20;2.58;;;;;;;13.72;100.00;98040.63;4170771;28;20218;-48
2023/03/30 03:01:41;;;;;;;11.02;2.78;;;;;;;13.75;100.00;98012.56;4177834;28;20212;-48
2023/03/30 03:03:47;;;;;;;9.73;4.20;;;;;;;13.65;100.00;98004.38;4174569;28;20247;-48
2023/03/30 03:05:53;;;;;;;11.68;4.22;;;;;;;13.67;100.00;97998.56;4171582;28;20235;-48
2023/03/30 03:07:56;;;;;;;10.43;3.85;;;;;;;13.59;100.00;98008.25;4164860;28;20241;-48
2023/03/30 03:09:59;;;;;;;9.48;3.10;;;;;;;13.56;100.00;98022.53;4167934;28;20208;-47
2023/03/30 03:12:00;;;;;;;10.90;3.58;;;;;;;13.46;100.00;98022.59;4167986;28;20282;-48
2023/03/30 03:14:02;;;;;;;8.48;3.35;;;;;;;13.57;100.00;98026.91;4173095;28;20630;-49
2023/03/30 03:16:06;;;;;;;4.32;2.67;;;;;;;13.33;100.00;98014.09;4168707;28;20234;-48
2023/03/30 03:18:09;;;;;;;7.22;3.20;;;;;;;13.38;100.00;98012.16;4170242;28;20242;-48
2023/03/30 03:20:11;;;;;;;6.57;2.20;;;;;;;13.37;100.00;98010.50;4168698;28;20323;-49
2023/03/30 03:22:13;;;;;;;9.20;3.90;;;;;;;13.29;100.00;97991.03;4170560;28;20302;-49
2023/03/30 03:24:16;;;;;;;10.40;2.53;;;;;;;13.39;100.00;97983.59;4172509;28;20697;-51
2023/03/30 03:26:18;;;;;;;6.90;2.80;;;;;;;13.34;100.00;97983.59;4171078;28;20248;-49
2023/03/30 03:28:21;;;;;;;8.20;2.55;;;;;;;13.43;100.00;97976.41;4171620;28;20443;-49
2023/03/30 03:30:22;;;;;;;8.55;3.10;;;;;;;13.30;100.00;97971.50;4184591;28;20299;-49
2023/03/30 03:32:24;;;;;;;8.07;2.40;;;;;;;13.22;100.00;97969.34;4170019;28;20315;-49
2023/03/30 03:34:30;;;;;;;9.43;3.38;;;;;;;13.26;100.00;97975.94;4169002;28;20208;-48
2023/03/30 03:36:32;;;;;;;8.13;2.50;;;;;;;13.30;100.00;97960.50;4177549;28;20235;-49
2023/03/30 03:38:35;;;;;;;5.95;2.85;;;;;;;13.18;100.00;97946.28;4170472;28;20216;-49
2023/03/30 03:40:36;;;;;;;11.50;3.33;;;;;;;13.09;100.00;97947.16;4171677;28;20254;-49
2023/03/30 03:42:38;;;;;;;7.82;2.22;;;;;;;13.09;100.00;97930.69;4153520;28;20296;-49
2023/03/30 03:44:40;;;;;;;9.50;3.53;;;;;;;13.05;100.00;97935.88;4172590;28;20255;-49
2023/03/30 03:46:42;;;;;;;7.45;3.50;;;;;;;13.10;100.00;97941.38;4175001;28;20704;-48
2023/03/30 03:48:45;;;;;;;6.95;2.63;;;;;;;12.94;100.00;97945.25;4170033;28;20240;-49
2023/03/30 03:50:55;;;;;;;4.22;2.28;;;;;;;12.77;100.00;97943.91;4169947;28;20586;-49
2023/03/30 03:52:57;;;;;;;11.10;3.45;;;;;;;12.68;100.00;97940.91;4175557;28;20234;-49
2023/03/30 03:54:59;;;;;;;10.05;2.97;;;;;;;12.72;100.00;97947.50;4160138;28;20236;-49
2023/03/30 03:57:01;;;;;;;8.30;3.47;;;;;;;12.74;100.00;97949.94;4203215;28;20217;-49
2023/03/30 03:59:03;;;;;;;12.40;3.55;;;;;;;12.77;100.00;97944.72;4172427;28;20224;-49
2023/03/30 04:01:05;;;;;;;7.63;3.35;;;;;;;12.77;100.00;97947.47;4168533;28;20275;-49
2023/03/30 04:03:08;;;;;;;6.70;3.35;;;;;;;12.83;100.00;97949.09;4168785;28;20197;-49
2023/03/30 04:05:14;;;;;;;6.75;3.33;;;;;;;12.90;100.00;97955.13;4169827;28;20350;-49
2023/03/30 04:07:17;;;;;;;8.32;3.03;;;;;;;12.95;100.00;97966.13;4154823;28;20259;-49
2023/03/30 04:09:20;;;;;;;14.40;3.22;;;;;;;12.95;100.00;97962.56;4171629;28;20208;-49
2023/03/30 04:11:22;;;;;;;17.02;3.65;;;;;;;12.97;100.00;97960.38;4201838;28;20202;-49
2023/03/30 04:13:24;;;;;;;7.25;2.60;;;;;;;12.94;100.00;97966.38;4185930;28;20300;-49
2023/03/30 04:15:26;;;;;;;10.25;3.20;;;;;;;12.98;100.00;97973.81;4175555;28;20274;-49
2023/03/30 04:17:27;;;;;;;8.98;2.78;;;;;;;12.99;100.00;97975.47;4170615;28;20277;-49
2023/03/30 04:19:30;;;;;;;7.78;3.38;;;;;;;12.96;100.00;97976.00;4172839;28;20216;-49
2023/03/30 04:21:32;;;;;;;15.68;3.70;;;;;;;12.98;100.00;97973.81;4151249;28;20216;-49
2023/03/30 04:23:34;;;;;;;4.20;2.53;;;;;;;13.00;100.00;97982.59;4165083;28;20235;-49
2023/03/30 04:25:35;;;;;;;9.77;5.07;;;;;;;13.07;100.00;97972.16;4200607;28;20231;-50
2023/03/30 04:27:37;;;;;;;19.80;8.55;;;;;;;13.00;100.00;97971.63;4199667;28;20683;-49
2023/03/30 04:29:39;;;;;;;15.57;8.32;;;;;;;13.00;100.00;97959.81;4178063;28;20191;-50
2023/03/30 04:31:45;;;;;;;14.35;9.77;;;;;;;12.86;100.00;97965.03;4167966;28;20200;-49
2023/03/30 04:33:52;;;;;;;19.02;8.95;;;;;;;12.90;100.00;97955.13;4167548;28;20219;-49
2023/03/30 04:35:54;;;;;;;13.82;8.48;;;;;;;12.94;100.00;97964.47;4170622;28;20228;-49
2023/03/30 04:37:56;;;;;;;10.88;6.90;;;;;;;12.91;100.00;97967.75;4171129;28;20236;-49
2023/03/30 04:39:59;;;;;;;11.80;6.05;;;;;;;12.92;100.00;97963.94;4185268;28;20215;-49
2023/03/30 04:42:05;;;;;;;8.70;5.70;;;;;;;12.96;100.00;97978.75;4169043;28;20642;-49
2023/03/30 04:44:08;;;;;;;9.15;4.55;;;;;;;12.93;100.00;97986.69;4171659;28;20283;-49
2023/03/30 04:46:10;;;;;;;10.38;4.40;;;;;;;12.91;100.00;97999.91;4171158;28;20282;-49
2023/03/30 04:48:12;;;;;;;11.82;5.80;;;;;;;13.03;100.00;98008.69;4183207;28;20647;-49
2023/03/30 04:50:14;;;;;;;13.23;4.72;;;;;;;12.95;100.00;98001.84;4156241;28;20679;-49
2023/03/30 04:52:16;;;;;;;8.65;3.05;;;;;;;12.84;100.00;97994.69;4174118;28;20214;-49
2023/03/30 04:54:17;;;;;;;6.28;2.80;;;;;;;12.73;100.00;97986.72;4198362;28;20328;-49
2023/03/30 04:56:20;;;;;;;6.18;3.15;;;;;;;12.50;100.00;97988.13;4158259;28;20286;-49
2023/03/30 04:58:22;;;;;;;9.27;3.30;;;;;;;12.49;100.00;97997.47;4175631;28;20208;-49
2023/03/30 05:00:26;;;;;;;4.88;2.63;;;;;;;12.54;100.00;97989.22;4174167;28;20648;-49
2023/03/30 05:02:27;;;;;;;7.93;3.65;;;;;;;12.63;100.00;97976.59;4152202;28;20294;-49
2023/03/30 05:04:29;;;;;;;5.43;2.92;;;;;;;12.60;100.00;97990.88;4153241;28;20248;-48
2023/03/30 05:06:31;;;;;;;9.48;3.05;;;;;;;12.62;100.00;98002.41;4168653;28;20250;-49
2023/03/30 05:08:34;;;;;;;8.15;3.90;;;;;;;12.65;100.00;98012.81;4169220;28;20236;-49
2023/03/30 05:10:35;;;;;;;7.10;3.00;;;;;;;12.69;100.00;98030.38;4167453;28;20741;-49
2023/03/30 05:12:37;;;;;;;6.72;2.83;;;;;;;12.68;100.00;98049.88;4170728;28;20208;-49
2023/03/30 05:14:39;;;;;;;7.88;3.13;;;;;;;12.60;100.00;98070.47;4165803;28;20281;-49
2023/03/30 05:16:41;;;;;;;5.90;3.08;;;;;;;12.49;100.00;98079.78;4167415;28;20242;-49
2023/03/30 05:18:43;;;;;;;11.55;4.35;;;;;;;12.41;100.00;98079.50;4167504;28;20200;-48
2023/03/30 05:20:45;;;;;;;14.80;4.07;;;;;;;12.41;100.00;98082.25;4153458;28;20644;-48
2023/03/30 05:22:47;;;;;;;7.30;3.08;;;;;;;12.35;100.00;98086.91;4167171;28;20288;-49
2023/03/30 05:24:51;;;;;;;7.35;2.90;;;;;;;12.31;100.00;98099.50;4200027;28;20328;-48
2023/03/30 05:26:55;;;;;;;6.20;2.85;;;;;;;12.26;100.00;98107.75;4181892;28;20302;-51
2023/03/30 05:28:59;;;;;;;9.80;4.30;;;;;;;12.27;100.00;98103.06;4151978;28;20685;-51
2023/03/30 05:31:05;;;;;;;9.32;3.22;;;;;;;12.19;100.00;98090.72;4153882;28;20219;-50
2023/03/30 05:33:09;;;;;;;8.05;3.65;;;;;;;12.23;100.00;98102.78;4178989;28;20229;-50
2023/03/30 05:35:13;;;;;;;14.38;4.97;;;;;;;12.23;100.00;98075.34;4165616;28;20770;-49
2023/03/30 05:37:21;;;;;;;9.02;3.13;;;;;;;12.18;100.00;98069.84;4186345;28;20621;-50
2023/03/30 05:39:24;;;;;;;17.58;4.18;;;;;;;12.20;100.00;98088.78;4183488;28;20642;-50
2023/03/30 05:41:27;;;;;;;7.70;3.08;;;;;;;12.20;100.00;98097.03;4165136;28;20204;-51
2023/03/30 05:43:35;;;;;;;9.65;3.78;;;;;;;12.19;100.00;98100.88;4179792;28;20274;-50
2023/03/30 05:45:42;;;;;;;14.07;3.40;;;;;;;12.21;100.00;98099.50;4166927;28;20282;-50
2023/03/30 05:47:50;;;;;;;18.70;5.03;;;;;;;12.26;100.00;98099.53;4168204;28;20204;-51
2023/03/30 05:49:56;;;;;;;8.35;5.07;;;;;;;12.26;100.00;98101.44;4179904;28;20207;-50
2023/03/30 05:52:04;;;;;;;6.32;2.92;;;;;;;12.19;100.00;98101.69;4168283;28;20298;-49
2023/03/30 05:54:11;;;;;;;6.28;3.00;;;;;;;12.20;100.00;98103.34;4174295;28;20216;-52
2023/03/30 05:56:17;;;;;;;5.00;2.38;;;;;;;12.18;100.00;98096.47;4198886;28;20222;-50
2023/03/30 05:58:20;;;;;;;4.43;3.05;;;;;;;12.15;100.00;98095.09;4164169;28;20307;-49
2023/03/30 06:00:21;;;;;;;8.73;3.38;;;;;;;12.12;100.00;98083.84;4181420;28;20250;-50
2023/03/30 06:02:24;;;;;;;5.05;2.72;;;;;;;12.14;100.00;98085.22;4170390;28;20298;-51
2023/03/30 06:04:26;;;;;;;6.00;2.35;;;;;;;12.08;100.00;98083.56;4167047;28;20208;-49
2023/03/30 06:06:28;;;;;;;9.38;2.92;;;;;;;12.05;100.00;98073.13;4155374;28;20795;-49
2023/03/30 06:08:30;;;;;;;3.53;2.22;;;;;;;11.97;100.00;98070.09;4166942;28;20623;-49
2023/03/30 06:10:31;;;;;;;5.65;2.83;;;;;;;11.94;100.00;98060.47;4170873;28;20287;-50
2023/03/30 06:12:34;;;;;;;3.67;2.33;;;;;;;11.93;100.00;98058.84;4180552;28;21023;-49
2023/03/30 06:14:35;;;;;;;6.53;2.55;;;;;;;11.91;100.00;98054.72;4180651;28;20256;-50
2023/03/30 06:16:37;;;;;;;4.53;2.42;;;;;;;11.85;100.00;98051.13;4182638;28;20208;-50
2023/03/30 06:18:39;;;;;;;4.45;2.25;;;;;;;11.84;100.00;98054.97;4171505;28;20281;-50
2023/03/30 06:20:41;;;;;;;2.95;2.63;;;;;;;11.80;100.00;98051.13;4167255;28;20215;-50
2023/03/30 06:22:43;;;;;;;5.00;2.50;;;;;;;11.86;100.00;98047.31;4164825;28;20231;-50
2023/03/30 06:24:46;;;;;;;4.82;3.20;;;;;;;11.85;100.00;98042.88;4171418;28;20939;-49
2023/03/30 06:26:48;;;;;;;2.80;2.47;;;;;;;11.84;100.00;98024.81;4172880;28;20269;-50
2023/03/30 06:28:50;;;;;;;7.90;2.97;;;;;;;11.89;100.00;98019.34;4174634;28;20222;-50
2023/03/30 06:30:52;;;;;;;3.47;2.80;;;;;;;11.85;100.00;98029.19;4182223;28;20216;-50
2023/03/30 06:32:54;;;;;;;4.10;2.80;;;;;;;11.88;100.00;98028.66;4159527;28;20243;-50
2023/03/30 06:34:56;;;;;;;5.40;3.25;;;;;;;11.83;100.00;98020.41;4175985;28;20744;-49
2023/03/30 06:36:58;;;;;;;4.45;2.65;;;;;;;11.94;100.00;98024.00;4175225;28;20247;-49
2023/03/30 06:39:04;;;;;;;3.85;3.17;;;;;;;11.92;100.00;98028.94;4167944;28;20208;-49
2023/03/30 06:41:07;;;;;;;6.13;3.42;;;;;;;11.91;100.00;98039.06;4169318;28;20216;-49
2023/03/30 06:43:15;;;;;;;6.90;3.03;;;;;;;11.92;100.00;98048.94;4168967;28;20208;-49
2023/03/30 06:45:17;;;;;;;4.15;3.13;;;;;;;11.98;100.00;98045.13;4157440;28;20315;-49
2023/03/30 06:47:21;;;;;;;6.00;3.00;;;;;;;11.95;100.00;98040.19;4166080;28;20659;-50
2023/03/30 06:49:26;;;;;;;7.03;3.05;;;;;;;11.91;100.00;98041.81;4173042;28;20210;-49
2023/03/30 06:51:28;;;;;;;6.47;2.85;;;;;;;11.93;100.00;98038.81;4169806;28;20242;-49
2023/03/30 06:53:31;;;;;;;2.63;2.42;;;;;;;11.96;100.00;98008.13;4185097;28;20857;-49
2023/03/30 06:55:33;;;;;;;3.60;3.22;;;;;;;11.87;100.00;97943.94;4171387;28;20251;-48
2023/03/30 06:57:35;;;;;;;3.78;3.15;;;;;;;11.84;100.00;97939.81;4167265;28;20315;-49
2023/03/30 06:59:39;;;;;;;7.05;3.05;;;;;;;11.84;100.00;97978.19;4166307;28;20300;-54
2023/03/30 07:02:14;;;;;;;4.18;2.47;;;;;;;11.97;100.00;98004.28;4163648;28;20738;-48
2023/03/30 07:04:16;;;;;;;5.15;2.95;;;;;;;11.94;100.00;98005.66;4182973;28;20210;-48
2023/03/30 07:06:19;;;;;;;4.20;2.42;;;;;;;11.91;100.00;98013.59;4171043;28;20282;-48
2023/03/30 07:08:22;;;;;;;5.15;4.32;;;;;;;11.93;100.00;98019.63;4156416;28;20231;-48
2023/03/30 07:10:24;;;;;;;2.85;2.10;;;;;;;11.95;100.00;98010.03;4170448;28;20294;-47
2023/03/30 07:12:26;;;;;;;9.98;2.83;;;;;;;11.98;100.00;98014.97;4172957;28;20216;-48
2023/03/30 07:14:28;;;;;;;5.03;2.60;;;;;;;11.99;100.00;98013.06;4174797;28;20220;-47
2023/03/30 07:16:29;;;;;;;4.93;2.33;;;;;;;11.92;100.00;97991.38;4171017;28;20618;-49
2023/03/30 07:18:31;;;;;;;4.03;2.25;;;;;;;11.93;100.00;97995.78;4169535;28;20695;-48
2023/03/30 07:20:34;;;;;;;4.13;2.47;;;;;;;11.94;100.00;98005.66;4171597;28;20258;-48
2023/03/30 07:22:36;;;;;;;6.50;2.63;;;;;;;11.95;100.00;98007.28;4172281;28;20720;-48
2023/03/30 07:24:37;;;;;;;4.55;1.70;;;;;;;11.91;100.00;98000.69;4168565;28;20631;-47
2023/03/30 07:26:39;;;;;;;2.85;2.60;;;;;;;11.97;100.00;97994.13;4175183;28;20226;-47
2023/03/30 07:28:41;;;;;;;4.15;2.47;;;;;;;11.99;100.00;98000.19;4154801;28;20248;-48
2023/03/30 07:30:43;;;;;;;4.07;2.20;;;;;;;12.09;100.00;97997.44;4176907;28;20319;-48
2023/03/30 07:32:45;;;;;;;3.90;2.42;;;;;;;12.13;100.00;97987.59;4199681;28;20225;-49
2023/03/30 07:34:46;;;;;;;6.07;2.65;;;;;;;12.17;100.00;97977.69;4187268;28;20241;-48
2023/03/30 07:36:49;;;;;;;5.45;2.92;;;;;;;12.33;100.00;97982.09;4170569;28;20231;-49
2023/03/30 07:38:50;;;;;;;8.73;2.92;;;;;;;12.38;100.00;97995.00;4168007;28;20580;-48
2023/03/30 07:40:52;;;;;;;2.60;2.40;;;;;;;12.58;100.00;97993.06;4169108;28;20946;-48
2023/03/30 07:42:54;;;;;;;5.65;2.47;;;;;;;12.64;100.00;97993.91;4168315;28;20220;-48
2023/03/30 07:44:55;;;;;;;4.85;2.90;;;;;;;12.77;100.00;97999.63;4169396;28;20250;-49
2023/03/30 07:46:57;;;;;;;7.07;2.53;;;;;;;12.91;100.00;98002.66;4170617;28;20637;-48
2023/03/30 07:49:00;;;;;;;4.10;2.58;;;;;;;13.05;100.00;98001.78;4156959;28;20283;-50
2023/03/30 07:51:06;;;;;;;8.82;2.72;;;;;;;13.23;100.00;98001.22;4169408;28;20204;-48
2023/03/30 07:53:09;;;;;;;3.00;2.75;;;;;;;13.36;100.00;97997.88;4154792;28;20212;-49
2023/03/30 07:55:10;;;;;;;4.03;2.03;;;;;;;13.68;100.00;97987.28;4171787;28;20254;-49
2023/03/30 07:57:12;;;;;;;2.28;2.05;;;;;;;13.90;100.00;97992.41;4169331;28;20204;-49
2023/03/30 07:59:14;;;;;;;3.20;1.80;;;;;;;13.86;100.00;97991.31;4168944;28;20243;-48
2023/03/30 08:01:16;;;;;;;2.00;1.80;;;;;;;13.57;100.00;97988.44;4170091;28;20288;-48
2023/03/30 08:03:18;;;;;;;2.78;1.90;;;;;;;13.79;100.00;97988.91;4170046;28;20267;-48
2023/03/30 08:05:21;;;;;;;5.63;2.50;;;;;;;14.12;100.00;98001.91;4167755;28;20229;-48
2023/03/30 08:07:22;;;;;;;4.63;2.10;;;;;;;13.97;100.00;98006.66;4185698;28;20788;-49
2023/03/30 08:09:24;;;;;;;2.30;2.08;;;;;;;13.79;100.00;98026.56;4168732;28;20308;-49
2023/03/30 08:11:26;;;;;;;3.67;2.13;;;;;;;13.79;100.00;98052.16;4169434;28;20287;-49
2023/03/30 08:13:28;;;;;;;3.55;1.42;;;;;;;13.60;100.00;98042.88;4175250;28;20250;-50
2023/03/30 08:15:29;;;;;;;3.47;1.80;;;;;;;13.47;100.00;98048.97;4167487;28;20310;-50
2023/03/30 08:17:31;;;;;;;3.40;2.22;;;;;;;13.44;100.00;98046.75;4170036;28;20295;-49
2023/03/30 08:19:33;;;;;;;5.55;2.38;;;;;;;13.45;100.00;98062.19;4153925;28;20209;-49
2023/03/30 08:21:35;;;;;;;8.52;3.20;;;;;;;13.33;100.00;98047.91;4174517;28;20246;-49
2023/03/30 08:23:37;;;;;;;4.90;2.55;;;;;;;13.42;100.00;98054.47;4188153;28;20235;-48
2023/03/30 08:25:51;;;;;;;4.55;2.50;;;;;;;13.55;100.00;98067.63;4191144;28;20686;-48
2023/03/30 08:27:53;;;;;;;2.70;1.50;;;;;;;13.66;100.00;98047.25;4178022;28;20211;-50
2023/03/30 08:29:55;;;;;;;5.30;2.15;;;;;;;13.67;100.00;98029.66;4203074;28;20207;-48
2023/03/30 08:31:56;;;;;;;3.38;1.30;;;;;;;13.60;100.00;97998.03;4192975;28;20241;-49
2023/03/30 08:34:08;;;;;;;3.65;1.40;;;;;;;13.56;100.00;97994.22;4199584;28;21115;-49
2023/03/30 08:36:11;;;;;;;5.80;2.00;;;;;;;13.57;100.00;98032.41;4184699;28;20254;-49
2023/03/30 08:38:16;;;;;;;3.55;2.20;;;;;;;13.60;100.00;98031.03;4176291;28;20758;-47
2023/03/30 08:40:20;;;;;;;3.80;2.00;;;;;;;13.57;100.00;98032.41;4184569;28;20258;-49
2023/03/30 08:42:38;;;;;;;4.45;1.75;;;;;;;13.63;100.00;98047.78;4177426;28;20208;-47
2023/03/30 08:44:42;;;;;;;2.03;1.65;;;;;;;13.70;100.00;98056.56;4169558;28;20205;-47
2023/03/30 08:46:44;;;;;;;4.53;2.20;;;;;;;13.66;100.00;98036.25;4157087;28;20212;-48
2023/03/30 08:48:47;;;;;;;4.43;1.90;;;;;;;13.61;100.00;98025.25;4157536;28;20209;-49
2023/03/30 08:50:55;;;;;;;4.53;2.15;;;;;;;13.52;100.00;98015.13;4172096;28;20215;-49
2023/03/30 08:52:57;;;;;;;2.95;1.77;;;;;;;13.42;100.00;98035.22;4169782;28;20211;-49
2023/03/30 08:54:59;;;;;;;3.15;2.03;;;;;;;13.38;100.00;98047.88;4168030;28;20239;-49
2023/03/30 08:57:23;;;;;;;3.63;1.73;;;;;;;13.32;100.00;98046.28;4175085;28;20305;-48
2023/03/30 08:59:33;;;;;;;5.70;2.42;;;;;;;13.33;100.00;98061.66;4164311;28;20216;-49
2023/03/30 09:01:42;;;;;;;4.20;2.10;;;;;;;13.19;100.00;98066.09;4169072;28;20204;-49
2023/03/30 09:03:50;;;;;;;3.92;2.05;;;;;;;13.25;100.00;98062.19;4169645;28;20661;-50
2023/03/30 09:05:55;;;;;;;4.78;2.05;;;;;;;13.16;100.00;98058.38;4167473;28;20243;-49
2023/03/30 09:08:27;;;;;;;3.72;2.53;;;;;;;13.11;100.00;98055.63;4186704;28;20263;-49
2023/03/30 09:10:31;;;;;;;4.32;2.22;;;;;;;13.02;100.00;98049.06;4162996;28;20208;-49
2023/03/30 09:12:45;;;;;;;4.88;2.85;;;;;;;13.01;100.00;98061.16;4203374;28;20299;-49
2023/03/30 09:14:57;;;;;;;2.90;2.05;;;;;;;13.02;100.00;98054.56;4168061;28;20231;-50
2023/03/30 09:17:06;;;;;;;5.10;2.83;;;;;;;13.15;100.00;98066.88;4150128;28;20206;-50
2023/03/30 09:19:13;;;;;;;4.18;1.92;;;;;;;13.24;100.00;98060.56;4166770;28;20246;-51
2023/03/30 09:21:15;;;;;;;4.65;2.03;;;;;;;13.23;100.00;98069.09;4166293;28;20637;-49
2023/03/30 09:23:17;;;;;;;3.88;1.60;;;;;;;13.23;100.00;98069.91;4158965;28;20216;-50
2023/03/30 09:25:27;;;;;;;4.80;1.90;;;;;;;13.26;100.00;98069.38;4166444;28;20606;-49
2023/03/30 09:27:46;;;;;;;2.78;2.22;;;;;;;13.27;100.00;98076.50;4170111;28;20208;-49
2023/03/30 09:29:50;;;;;;;2.88;2.05;;;;;;;13.21;100.00;98077.59;4148821;28;20706;-49
2023/03/30 09:32:05;;;;;;;4.78;2.60;;;;;;;13.27;100.00;98082.00;4168523;28;20282;-49
2023/03/30 09:34:23;;;;;;;6.70;1.98;;;;;;;13.26;100.00;98083.09;4171003;28;20721;-48
2023/03/30 09:36:35;;;;;;;5.35;2.00;;;;;;;13.27;100.00;98087.50;4167600;28;20640;-49
2023/03/30 09:38:40;;;;;;;4.63;2.72;;;;;;;13.35;100.00;98078.69;4172806;28;20650;-51
2023/03/30 09:40:51;;;;;;;5.38;1.98;;;;;;;13.42;100.00;98079.22;4167120;28;20637;-50
2023/03/30 09:43:27;;;;;;;3.63;2.35;;;;;;;13.48;100.00;98086.34;4168472;28;20209;-49
2023/03/30 09:45:33;;;;;;;8.55;2.35;;;;;;;13.64;100.00;98098.94;4167045;28;20231;-49
2023/03/30 09:47:37;;;;;;;2.20;1.67;;;;;;;13.62;100.00;98087.41;4165075;28;20250;-49